createdAt,value
2023-01-21T00:01:44.779Z,17.48
2023-01-21T00:03:52.363Z,19.48
2023-01-21T00:05:58.508Z,18.65
2023-01-21T00:08:03.700Z,18.05
2023-01-21T00:10:09.474Z,15.77
2023-01-21T00:12:14.794Z,15.30
2023-01-21T00:14:19.804Z,14.85
2023-01-21T00:16:24.696Z,14.55
2023-01-21T00:18:30.237Z,15.70
2023-01-21T00:20:37.941Z,14.88
2023-01-21T00:22:42.875Z,16.23
2023-01-21T00:24:47.754Z,15.73
2023-01-21T00:26:52.636Z,15.25
2023-01-21T00:28:57.772Z,17.30
2023-01-21T00:31:04.735Z,15.80
2023-01-21T00:33:10.076Z,16.48
2023-01-21T00:35:15.391Z,14.60
2023-01-21T00:37:22.888Z,13.80
2023-01-21T00:39:27.765Z,14.00
2023-01-21T00:41:32.666Z,12.80
2023-01-21T00:43:39.390Z,14.38
2023-01-21T00:45:47.025Z,13.48
2023-01-21T00:47:51.909Z,12.50
2023-01-21T00:49:56.795Z,14.25
2023-01-21T00:52:01.727Z,13.65
2023-01-21T00:54:09.265Z,12.68
2023-01-21T00:56:16.244Z,13.15
2023-01-21T00:58:21.257Z,12.18
2023-01-21T01:00:26.552Z,12.60
2023-01-21T01:02:31.414Z,13.38
2023-01-21T01:04:36.478Z,12.73
2023-01-21T01:06:41.460Z,12.95
2023-01-21T01:08:49.514Z,13.23
2023-01-21T01:11:00.296Z,11.35
2023-01-21T01:15:13.105Z,11.55
2023-01-21T01:19:22.829Z,11.52
2023-01-21T01:21:27.751Z,13.70
2023-01-21T01:23:33.547Z,12.82
2023-01-21T01:25:39.062Z,12.70
2023-01-21T01:27:46.562Z,13.48
2023-01-21T01:29:52.394Z,11.65
2023-01-21T01:31:57.295Z,10.52
2023-01-21T01:34:02.598Z,11.43
2023-01-21T01:36:14.554Z,11.60
2023-01-21T01:38:21.215Z,11.32
2023-01-21T01:40:26.118Z,11.23
2023-01-21T01:42:30.987Z,11.63
2023-01-21T01:45:07.517Z,10.52
2023-01-21T01:47:12.699Z,10.90
2023-01-21T01:49:22.108Z,11.02
2023-01-21T01:51:35.553Z,10.48
2023-01-21T01:53:45.848Z,11.27
2023-01-21T01:55:52.868Z,11.30
2023-01-21T01:57:59.334Z,10.88
2023-01-21T02:00:14.267Z,10.77
2023-01-21T02:02:22.645Z,11.07
2023-01-21T02:04:34.594Z,10.40
2023-01-21T02:06:45.357Z,11.50
2023-01-21T02:08:51.306Z,10.85
2023-01-21T02:10:56.666Z,10.70
2023-01-21T02:13:01.585Z,11.95
2023-01-21T02:15:12.195Z,13.90
2023-01-21T02:17:36.722Z,13.15
2023-01-21T02:20:06.402Z,13.10
2023-01-21T02:22:23.607Z,12.80
2023-01-21T02:25:13.427Z,13.85
2023-01-21T02:27:52.557Z,16.83
2023-01-21T02:30:53.562Z,14.57
2023-01-21T02:33:29.516Z,14.27
2023-01-21T02:35:45.045Z,14.02
2023-01-21T02:37:57.630Z,15.23
2023-01-21T02:40:18.478Z,15.10
2023-01-21T02:42:31.865Z,12.70
2023-01-21T02:44:43.325Z,13.57
2023-01-21T02:46:53.754Z,14.10
2023-01-21T02:49:09.725Z,13.05
2023-01-21T02:51:15.982Z,13.20
2023-01-21T02:53:28.292Z,12.48
2023-01-21T02:55:38.480Z,12.95
2023-01-21T02:57:50.125Z,13.15
2023-01-21T02:59:58.271Z,13.13
2023-01-21T03:02:20.032Z,13.43
2023-01-21T03:04:56.417Z,14.10
2023-01-21T03:07:09.560Z,14.07
2023-01-21T03:09:25.691Z,15.98
2023-01-21T03:11:31.242Z,17.17
2023-01-21T03:13:55.950Z,17.25
2023-01-21T03:16:14.913Z,17.23
2023-01-21T03:18:25.661Z,17.95
2023-01-21T03:20:40.421Z,17.23
2023-01-21T03:22:47.063Z,19.38
2023-01-21T03:24:56.610Z,17.35
2023-01-21T03:27:03.360Z,16.77
2023-01-21T03:29:15.728Z,14.90
2023-01-21T03:31:26.627Z,13.32
2023-01-21T03:33:35.516Z,15.23
2023-01-21T03:35:48.151Z,15.15
2023-01-21T03:37:58.651Z,14.85
2023-01-21T03:40:19.714Z,15.25
2023-01-21T03:42:25.135Z,14.15
2023-01-21T03:44:30.759Z,14.35
2023-01-21T03:46:42.234Z,13.95
2023-01-21T03:48:52.411Z,13.68
2023-01-21T03:51:08.057Z,15.60
2023-01-21T03:53:14.046Z,14.07
2023-01-21T03:55:21.827Z,14.02
2023-01-21T03:59:31.983Z,12.65
2023-01-21T04:01:36.847Z,13.68
2023-01-21T04:03:43.410Z,13.80
2023-01-21T04:05:49.665Z,15.38
2023-01-21T04:07:57.227Z,13.63
2023-01-21T04:12:07.607Z,14.60
2023-01-21T04:14:12.744Z,16.42
2023-01-21T04:16:18.108Z,17.65
2023-01-21T04:18:23.001Z,18.27
2023-01-21T04:20:28.021Z,15.90
2023-01-21T04:22:32.871Z,14.75
2023-01-21T04:24:40.309Z,17.83
2023-01-21T04:26:45.447Z,19.00
2023-01-21T04:28:50.293Z,18.10
2023-01-21T04:30:55.180Z,18.60
2023-01-21T04:33:00.111Z,17.30
2023-01-21T04:35:05.015Z,18.40
2023-01-21T04:37:09.886Z,17.73
2023-01-21T04:39:17.292Z,16.77
2023-01-21T04:41:25.618Z,16.67
2023-01-21T04:43:30.617Z,15.52
2023-01-21T04:45:38.202Z,16.13
2023-01-21T04:47:45.119Z,17.23
2023-01-21T04:49:50.761Z,17.42
2023-01-21T04:51:55.765Z,16.77
2023-01-21T04:54:01.019Z,17.17
2023-01-21T04:56:06.041Z,19.13
2023-01-21T04:58:14.057Z,18.10
2023-01-21T05:00:22.490Z,17.38
2023-01-21T05:02:27.945Z,20.35
2023-01-21T05:04:33.283Z,21.25
2023-01-21T05:06:38.217Z,20.50
2023-01-21T05:08:43.214Z,20.60
2023-01-21T05:10:48.080Z,21.58
2023-01-21T05:12:53.665Z,23.23
2023-01-21T05:15:01.191Z,24.33
2023-01-21T05:17:06.245Z,22.63
2023-01-21T05:19:11.655Z,22.98
2023-01-21T05:21:17.329Z,24.48
2023-01-21T05:23:23.132Z,23.05
2023-01-21T05:25:28.533Z,25.73
2023-01-21T05:27:33.716Z,24.65
2023-01-21T05:29:38.588Z,23.70
2023-01-21T05:31:46.346Z,22.52
2023-01-21T05:33:51.605Z,23.60
2023-01-21T05:35:56.748Z,23.27
2023-01-21T05:38:01.877Z,23.27
2023-01-21T05:40:08.142Z,22.08
2023-01-21T05:42:13.009Z,23.90
2023-01-21T05:44:18.035Z,24.15
2023-01-21T05:46:22.964Z,24.65
2023-01-21T05:48:32.000Z,22.08
2023-01-21T05:50:37.589Z,23.40
2023-01-21T05:52:43.114Z,22.42
2023-01-21T05:55:01.037Z,24.55
2023-01-21T05:57:06.669Z,21.85
2023-01-21T05:59:12.365Z,23.20
2023-01-21T06:01:17.697Z,22.52
2023-01-21T06:03:23.476Z,22.63
2023-01-21T06:05:32.345Z,21.05
2023-01-21T06:07:37.287Z,23.10
2023-01-21T06:09:42.169Z,22.20
2023-01-21T06:11:47.035Z,23.02
2023-01-21T06:13:51.900Z,23.90
2023-01-21T06:15:58.684Z,23.02
2023-01-21T06:18:03.825Z,25.60
2023-01-21T06:20:12.027Z,25.13
2023-01-21T06:22:20.419Z,23.33
2023-01-21T06:24:25.346Z,24.10
2023-01-21T06:26:30.879Z,22.02
2023-01-21T06:28:35.951Z,21.90
2023-01-21T06:30:41.525Z,22.88
2023-01-21T06:32:46.610Z,20.65
2023-01-21T06:34:51.590Z,19.25
2023-01-21T06:36:56.563Z,19.55
2023-01-21T06:39:04.295Z,17.98
2023-01-21T06:41:09.205Z,18.45
2023-01-21T06:43:14.700Z,18.27
2023-01-21T06:45:20.349Z,18.85
2023-01-21T06:47:25.354Z,18.20
2023-01-21T06:49:30.549Z,18.55
2023-01-21T06:51:35.415Z,18.42
2023-01-21T06:53:40.305Z,18.13
2023-01-21T06:55:48.500Z,18.33
2023-01-21T06:59:58.061Z,16.20
2023-01-21T07:02:03.189Z,16.92
2023-01-21T07:04:08.125Z,16.60
2023-01-21T07:06:13.872Z,17.60
2023-01-21T07:08:18.821Z,16.52
2023-01-21T07:10:23.984Z,16.08
2023-01-21T07:12:32.101Z,17.88
2023-01-21T07:14:37.044Z,17.38
2023-01-21T07:16:45.173Z,16.83
2023-01-21T07:18:50.183Z,15.93
2023-01-21T07:20:59.573Z,17.33
2023-01-21T07:23:04.525Z,16.00
2023-01-21T07:25:11.278Z,16.83
2023-01-21T07:27:16.302Z,17.65
2023-01-21T07:29:24.287Z,23.75
2023-01-21T07:31:29.475Z,17.65
2023-01-21T07:33:34.488Z,17.50
2023-01-21T07:35:39.885Z,17.88
2023-01-21T07:37:45.096Z,17.10
2023-01-21T07:39:50.051Z,17.73
2023-01-21T07:41:55.054Z,17.30
2023-01-21T07:43:59.970Z,16.20
2023-01-21T07:46:07.941Z,16.88
2023-01-21T07:50:19.282Z,13.48
2023-01-21T07:52:24.382Z,14.57
2023-01-21T07:54:29.578Z,14.30
2023-01-21T07:56:34.589Z,13.35
2023-01-21T07:58:40.231Z,14.57
2023-01-21T08:00:45.167Z,13.05
2023-01-21T08:02:55.100Z,13.27
2023-01-21T08:05:00.093Z,12.60
2023-01-21T08:07:12.013Z,12.85
2023-01-21T08:09:17.945Z,11.68
2023-01-21T08:11:22.898Z,11.90
2023-01-21T08:13:30.861Z,11.43
2023-01-21T08:15:35.862Z,11.25
2023-01-21T08:17:41.754Z,11.98
2023-01-21T08:19:49.352Z,12.50
2023-01-21T08:23:59.504Z,11.27
2023-01-21T08:26:06.706Z,11.25
2023-01-21T08:30:19.480Z,11.55
2023-01-21T08:32:25.003Z,13.25
2023-01-21T08:34:30.035Z,13.48
2023-01-21T08:36:39.019Z,14.43
2023-01-21T08:38:44.099Z,12.27
2023-01-21T08:40:49.063Z,12.88
2023-01-21T08:42:54.595Z,13.23
2023-01-21T08:45:00.710Z,13.10
2023-01-21T08:47:05.886Z,12.55
2023-01-21T08:49:12.685Z,13.68
2023-01-21T08:51:18.194Z,14.48
2023-01-21T08:53:25.944Z,11.35
2023-01-21T08:55:31.037Z,13.43
2023-01-21T08:57:37.887Z,10.10
2023-01-21T08:59:43.027Z,11.43
2023-01-21T09:01:50.702Z,12.30
2023-01-21T09:03:58.607Z,11.27
2023-01-21T09:08:09.807Z,12.10
2023-01-21T09:10:39.073Z,13.05
2023-01-21T09:12:44.633Z,12.35
2023-01-21T09:14:50.388Z,12.02
2023-01-21T09:16:58.201Z,12.32
2023-01-21T09:19:03.918Z,12.82
2023-01-21T09:21:09.926Z,12.93
2023-01-21T09:23:27.060Z,12.18
2023-01-21T09:25:36.753Z,12.70
2023-01-21T09:27:41.997Z,12.90
2023-01-21T09:29:47.393Z,13.38
2023-01-21T09:31:52.380Z,12.32
2023-01-21T09:34:00.680Z,12.93
2023-01-21T09:36:09.586Z,12.23
2023-01-21T09:38:15.504Z,12.20
2023-01-21T09:40:20.619Z,12.45
2023-01-21T09:42:34.083Z,12.63
2023-01-21T09:44:44.972Z,12.68
2023-01-21T09:46:58.150Z,13.23
2023-01-21T09:49:08.425Z,12.82
2023-01-21T09:51:24.467Z,11.70
2023-01-21T09:53:35.103Z,12.18
2023-01-21T09:55:49.764Z,11.18
2023-01-21T09:58:16.674Z,11.82
2023-01-21T10:00:38.503Z,13.43
2023-01-21T10:02:53.162Z,13.05
2023-01-21T10:05:20.327Z,12.23
2023-01-21T10:09:57.624Z,11.55
2023-01-21T10:12:30.521Z,11.45
2023-01-21T10:15:10.338Z,10.07
2023-01-21T10:17:24.491Z,11.50
2023-01-21T10:19:38.671Z,11.20
2023-01-21T10:21:52.716Z,10.77
2023-01-21T10:24:03.753Z,11.40
2023-01-21T10:26:13.123Z,9.48
2023-01-21T10:28:26.414Z,10.40
2023-01-21T10:30:41.081Z,11.20
2023-01-21T10:32:49.124Z,11.02
2023-01-21T10:34:56.197Z,11.38
2023-01-21T10:37:14.194Z,10.38
2023-01-21T10:39:40.035Z,11.38
2023-01-21T10:42:14.022Z,10.38
2023-01-21T10:44:26.937Z,10.65
2023-01-21T10:46:42.946Z,10.18
2023-01-21T10:48:57.889Z,10.90
2023-01-21T10:51:14.071Z,11.85
2023-01-21T10:53:32.853Z,10.43
2023-01-21T10:55:53.311Z,11.85
2023-01-21T10:58:05.270Z,12.48
2023-01-21T11:00:23.956Z,10.65
2023-01-21T11:02:35.407Z,11.27
2023-01-21T11:04:43.466Z,11.10
2023-01-21T11:07:00.551Z,10.73
2023-01-21T11:09:09.834Z,9.00
2023-01-21T11:11:29.775Z,10.02
2023-01-21T11:13:35.099Z,10.75
2023-01-21T11:15:47.213Z,9.32
2023-01-21T11:17:56.925Z,9.80
2023-01-21T11:20:04.777Z,10.25
2023-01-21T11:22:27.433Z,11.02
2023-01-21T11:24:35.272Z,9.93
2023-01-21T11:26:40.472Z,10.27
2023-01-21T11:28:45.929Z,10.95
2023-01-21T11:30:52.097Z,10.02
2023-01-21T11:33:24.916Z,10.65
2023-01-21T11:35:30.094Z,11.60
2023-01-21T11:37:36.402Z,11.05
2023-01-21T11:39:51.320Z,10.18
2023-01-21T11:41:57.221Z,12.50
2023-01-21T11:44:19.273Z,12.35
2023-01-21T11:46:30.986Z,12.55
2023-01-21T11:48:40.455Z,11.25
2023-01-21T11:50:45.332Z,9.93
2023-01-21T11:52:50.477Z,11.07
2023-01-21T11:54:55.563Z,9.57
2023-01-21T11:57:04.153Z,10.85
2023-01-21T11:59:23.263Z,11.10
2023-01-21T12:01:28.301Z,10.48
2023-01-21T12:03:40.830Z,10.45
2023-01-21T12:05:50.855Z,11.02
2023-01-21T12:07:56.153Z,9.93
2023-01-21T12:10:11.136Z,10.82
2023-01-21T12:12:36.487Z,10.15
2023-01-21T12:14:54.173Z,11.32
2023-01-21T12:17:11.293Z,8.52
2023-01-21T12:19:46.029Z,11.45
2023-01-21T12:22:19.493Z,11.93
2023-01-21T12:24:41.239Z,10.07
2023-01-21T12:26:50.306Z,10.23
2023-01-21T12:29:23.259Z,9.40
2023-01-21T12:31:34.675Z,8.07
2023-01-21T12:33:49.409Z,9.52
2023-01-21T12:36:00.943Z,9.43
2023-01-21T12:38:10.704Z,10.00
2023-01-21T12:40:22.121Z,8.35
2023-01-21T12:42:35.090Z,9.20
2023-01-21T12:44:48.740Z,9.88
2023-01-21T12:46:57.747Z,9.80
2023-01-21T12:49:15.815Z,9.73
2023-01-21T12:51:29.902Z,8.90
2023-01-21T12:53:43.510Z,9.38
2023-01-21T12:56:09.203Z,9.30
2023-01-21T12:58:20.444Z,9.15
2023-01-21T13:00:29.028Z,9.15
2023-01-21T13:02:42.802Z,10.10
2023-01-21T13:04:57.961Z,8.23
2023-01-21T13:07:14.971Z,9.15
2023-01-21T13:09:32.010Z,8.25
2023-01-21T13:11:45.616Z,8.63
2023-01-21T13:14:04.091Z,8.50
2023-01-21T13:16:12.465Z,8.18
2023-01-21T13:18:31.742Z,7.97
2023-01-21T13:20:44.730Z,8.13
2023-01-21T13:23:09.775Z,9.32
2023-01-21T13:25:29.952Z,8.43
2023-01-21T13:27:44.377Z,7.35
2023-01-21T13:30:00.069Z,8.23
2023-01-21T13:32:32.114Z,7.15
2023-01-21T13:34:46.806Z,9.73
2023-01-21T13:37:12.584Z,8.20
2023-01-21T13:39:30.560Z,7.20
2023-01-21T13:41:54.706Z,7.70
2023-01-21T13:44:59.457Z,7.05
2023-01-21T13:47:19.532Z,5.70
2023-01-21T13:50:15.384Z,7.05
2023-01-21T13:52:26.592Z,6.32
2023-01-21T13:55:01.748Z,6.80
2023-01-21T13:57:27.531Z,6.90
2023-01-21T13:59:37.598Z,7.45
2023-01-21T14:01:49.190Z,7.50
2023-01-21T14:04:03.232Z,7.07
2023-01-21T14:06:12.802Z,6.22
2023-01-21T14:08:25.819Z,6.88
2023-01-21T14:10:40.573Z,7.00
2023-01-21T14:13:20.964Z,7.07
2023-01-21T14:15:50.242Z,7.68
2023-01-21T14:18:20.120Z,6.88
2023-01-21T14:21:15.465Z,7.38
2023-01-21T14:23:47.871Z,6.25
2023-01-21T14:26:19.213Z,6.32
2023-01-21T14:28:34.289Z,6.43
2023-01-21T14:30:45.445Z,7.32
2023-01-21T14:32:56.732Z,8.10
2023-01-21T14:35:19.286Z,7.68
2023-01-21T14:37:35.842Z,7.45
2023-01-21T14:39:53.030Z,7.13
2023-01-21T14:42:09.245Z,6.03
2023-01-21T14:44:43.498Z,6.63
2023-01-21T14:47:25.585Z,7.63
2023-01-21T14:49:44.082Z,6.75
2023-01-21T14:51:52.814Z,7.43
2023-01-21T14:54:04.667Z,6.78
2023-01-21T14:56:19.833Z,6.15
2023-01-21T14:58:35.946Z,8.48
2023-01-21T15:00:47.722Z,9.07
2023-01-21T15:03:08.752Z,7.18
2023-01-21T15:05:25.764Z,9.02
2023-01-21T15:07:37.783Z,8.23
2023-01-21T15:09:59.098Z,6.95
2023-01-21T15:12:09.478Z,7.00
2023-01-21T15:14:25.748Z,6.78
2023-01-21T15:16:41.648Z,6.70
2023-01-21T15:18:51.100Z,7.13
2023-01-21T15:21:00.777Z,9.13
2023-01-21T15:23:23.299Z,6.93
2023-01-21T15:25:36.848Z,6.75
2023-01-21T15:27:41.751Z,7.03
2023-01-21T15:30:10.530Z,7.30
2023-01-21T15:32:31.114Z,6.78
2023-01-21T15:34:37.370Z,7.40
2023-01-21T15:36:50.443Z,8.32
2023-01-21T15:39:02.339Z,7.43
2023-01-21T15:41:22.193Z,7.07
2023-01-21T15:43:35.430Z,6.97
2023-01-21T15:45:52.301Z,7.03
2023-01-21T15:48:41.250Z,8.15
2023-01-21T15:50:54.130Z,7.03
2023-01-21T15:53:25.880Z,6.53
2023-01-21T15:55:49.146Z,8.13
2023-01-21T15:58:07.158Z,5.75
2023-01-21T16:00:36.047Z,7.00
2023-01-21T16:02:55.586Z,6.75
2023-01-21T16:05:23.172Z,6.55
2023-01-21T16:07:42.774Z,6.50
2023-01-21T16:10:04.586Z,5.88
2023-01-21T16:12:24.816Z,7.35
2023-01-21T16:14:52.871Z,7.60
2023-01-21T16:17:11.255Z,6.57
2023-01-21T16:19:18.799Z,7.38
2023-01-21T16:21:32.517Z,6.55
2023-01-21T16:23:43.742Z,6.63
2023-01-21T16:25:50.612Z,6.82
2023-01-21T16:27:57.599Z,7.10
2023-01-21T16:30:05.910Z,6.70
2023-01-21T16:32:18.349Z,6.30
2023-01-21T16:34:42.245Z,6.88
2023-01-21T16:36:49.827Z,6.18
2023-01-21T16:38:54.765Z,6.50
2023-01-21T16:41:28.849Z,6.50
2023-01-21T16:43:37.169Z,6.70
2023-01-21T16:47:48.801Z,8.15
2023-01-21T16:49:54.627Z,7.35
2023-01-21T16:52:06.080Z,6.88
2023-01-21T16:54:31.211Z,6.38
2023-01-21T16:56:36.329Z,7.25
2023-01-21T16:58:50.134Z,6.93
2023-01-21T17:01:06.066Z,6.57
2023-01-21T17:03:16.304Z,6.80
2023-01-21T17:05:25.731Z,6.57
2023-01-21T17:07:38.184Z,7.60
2023-01-21T17:09:43.734Z,7.10
2023-01-21T17:11:50.442Z,7.00
2023-01-21T17:13:55.774Z,7.15
2023-01-21T17:16:05.661Z,6.78
2023-01-21T17:18:21.065Z,6.82
2023-01-21T17:20:43.984Z,6.40
2023-01-21T17:22:51.507Z,6.70
2023-01-21T17:25:07.489Z,6.28
2023-01-21T17:27:17.940Z,7.03
2023-01-21T17:29:28.433Z,6.45
2023-01-21T17:31:38.500Z,6.82
2023-01-21T17:33:44.254Z,8.05
2023-01-21T17:36:09.370Z,7.53
2023-01-21T17:38:32.420Z,7.88
2023-01-21T17:40:42.331Z,6.97
2023-01-21T17:42:47.259Z,7.47
2023-01-21T17:44:56.156Z,8.35
2023-01-21T17:47:01.070Z,7.50
2023-01-21T17:49:12.026Z,7.32
2023-01-21T17:51:19.597Z,7.78
2023-01-21T17:53:30.984Z,7.38
2023-01-21T17:55:38.283Z,7.20
2023-01-21T17:57:43.213Z,5.97
2023-01-21T18:01:57.075Z,7.45
2023-01-21T18:04:02.918Z,8.15
2023-01-21T18:06:15.590Z,8.63
2023-01-21T18:08:20.967Z,8.40
2023-01-21T18:10:31.639Z,8.40
2023-01-21T18:12:36.534Z,7.45
2023-01-21T18:14:42.187Z,8.38
2023-01-21T18:16:47.228Z,8.30
2023-01-21T18:18:54.119Z,8.52
2023-01-21T18:20:59.570Z,8.87
2023-01-21T18:23:04.453Z,8.68
2023-01-21T18:25:10.908Z,9.02
2023-01-21T18:27:20.620Z,8.25
2023-01-21T18:29:30.426Z,8.55
2023-01-21T18:31:36.016Z,8.93
2023-01-21T18:33:41.019Z,9.52
2023-01-21T18:35:49.891Z,8.15
2023-01-21T18:37:54.906Z,8.52
2023-01-21T18:40:00.119Z,9.23
2023-01-21T18:42:05.281Z,8.68
2023-01-21T18:44:13.655Z,8.55
2023-01-21T18:48:33.387Z,7.38
2023-01-21T18:50:38.314Z,7.75
2023-01-21T18:52:43.232Z,9.07
2023-01-21T18:54:48.586Z,8.95
2023-01-21T18:56:53.509Z,9.10
2023-01-21T18:58:58.408Z,8.55
2023-01-21T19:01:21.358Z,8.88
2023-01-21T19:03:27.786Z,8.70
2023-01-21T19:05:37.254Z,8.40
2023-01-21T19:07:42.534Z,8.23
2023-01-21T19:09:49.992Z,8.48
2023-01-21T19:11:55.567Z,8.48
2023-01-21T19:14:01.368Z,9.25
2023-01-21T19:16:15.876Z,7.68
2023-01-21T19:18:20.839Z,8.13
2023-01-21T19:20:28.394Z,8.88
2023-01-21T19:22:33.440Z,8.18
2023-01-21T19:24:38.348Z,9.23
2023-01-21T19:26:43.329Z,9.45
2023-01-21T19:28:48.934Z,9.60
2023-01-21T19:30:55.519Z,9.35
2023-01-21T19:33:04.137Z,9.38
2023-01-21T19:35:11.219Z,10.68
2023-01-21T19:37:18.692Z,9.75
2023-01-21T19:39:26.494Z,9.82
2023-01-21T19:41:31.588Z,9.43
2023-01-21T19:43:36.677Z,10.63
2023-01-21T19:45:42.093Z,9.75
2023-01-21T19:47:52.068Z,10.27
2023-01-21T19:50:00.248Z,9.88
2023-01-21T19:52:05.957Z,9.75
2023-01-21T19:54:10.888Z,9.35
2023-01-21T19:56:26.183Z,9.82
2023-01-21T19:58:34.107Z,11.27
2023-01-21T20:02:44.572Z,9.73
2023-01-21T20:04:49.963Z,9.18
2023-01-21T20:06:57.438Z,10.07
2023-01-21T20:09:02.979Z,10.38
2023-01-21T20:11:08.138Z,10.00
2023-01-21T20:13:15.143Z,10.18
2023-01-21T20:15:31.812Z,9.33
2023-01-21T20:17:37.310Z,10.55
2023-01-21T20:19:42.281Z,10.63
2023-01-21T20:22:00.482Z,10.57
2023-01-21T20:24:10.525Z,10.70
2023-01-21T20:26:23.667Z,10.55
2023-01-21T20:28:37.336Z,10.98
2023-01-21T20:30:42.325Z,11.27
2023-01-21T20:32:47.612Z,10.98
2023-01-21T20:34:52.501Z,12.05
2023-01-21T20:36:59.441Z,11.82
2023-01-21T20:39:11.437Z,12.50
2023-01-21T20:41:16.513Z,12.43
2023-01-21T20:43:21.443Z,11.32
2023-01-21T20:45:42.089Z,11.65
2023-01-21T20:47:50.625Z,12.27
2023-01-21T20:49:55.570Z,10.65
2023-01-21T20:52:00.752Z,12.18
2023-01-21T20:54:05.759Z,12.98
2023-01-21T20:56:28.497Z,11.65
2023-01-21T20:58:33.897Z,11.88
2023-01-21T21:00:38.854Z,12.13
2023-01-21T21:02:43.790Z,10.88
2023-01-21T21:04:48.685Z,12.25
2023-01-21T21:06:55.908Z,12.05
2023-01-21T21:09:00.830Z,11.75
2023-01-21T21:11:05.746Z,11.35
2023-01-21T21:13:14.712Z,11.00
2023-01-21T21:15:22.028Z,11.45
2023-01-21T21:17:26.966Z,11.38
2023-01-21T21:19:31.906Z,9.45
2023-01-21T21:21:36.827Z,10.77
2023-01-21T21:23:41.762Z,11.88
2023-01-21T21:25:50.392Z,10.95
2023-01-21T21:27:56.360Z,11.45
2023-01-21T21:30:04.192Z,11.27
2023-01-21T21:32:12.077Z,11.00
2023-01-21T21:34:17.231Z,11.63
2023-01-21T21:36:27.127Z,11.90
2023-01-21T21:38:32.041Z,12.23
2023-01-21T21:40:37.416Z,11.45
2023-01-21T21:42:57.513Z,11.13
2023-01-21T21:45:05.298Z,12.23
2023-01-21T21:47:25.028Z,11.40
2023-01-21T21:49:30.460Z,11.05
2023-01-21T21:51:38.009Z,10.98
2023-01-21T21:53:44.541Z,11.40
2023-01-21T21:55:49.463Z,10.50
2023-01-21T21:57:54.468Z,10.55
2023-01-21T21:59:59.621Z,11.00
2023-01-21T22:02:07.459Z,10.63
2023-01-21T22:06:20.209Z,10.32
2023-01-21T22:08:29.643Z,10.55
2023-01-21T22:10:39.632Z,10.65
2023-01-21T22:12:45.023Z,10.82
2023-01-21T22:14:54.634Z,10.80
2023-01-21T22:17:00.281Z,10.73
2023-01-21T22:19:07.801Z,10.80
2023-01-21T22:21:19.069Z,10.23
2023-01-21T22:23:24.463Z,10.40
2023-01-21T22:25:37.134Z,10.65
2023-01-21T22:27:42.040Z,11.38
2023-01-21T22:29:46.937Z,11.10
2023-01-21T22:31:52.001Z,10.32
2023-01-21T22:33:58.288Z,10.20
2023-01-21T22:36:13.432Z,10.45
2023-01-21T22:38:19.479Z,10.45
2023-01-21T22:40:25.254Z,10.82
2023-01-21T22:42:30.665Z,10.32
2023-01-21T22:44:35.535Z,10.45
2023-01-21T22:46:41.020Z,10.70
2023-01-21T22:48:46.717Z,11.30
2023-01-21T22:50:55.965Z,10.32
2023-01-21T22:53:03.603Z,10.52
2023-01-21T22:55:12.029Z,10.68
2023-01-21T22:57:16.950Z,9.68
2023-01-21T22:59:22.020Z,9.50
2023-01-21T23:01:31.021Z,9.10
2023-01-21T23:03:36.414Z,9.30
2023-01-21T23:05:41.692Z,8.20
2023-01-21T23:07:46.806Z,7.97
2023-01-21T23:09:54.896Z,8.52
2023-01-21T23:11:59.925Z,8.70
2023-01-21T23:14:05.274Z,8.23
2023-01-21T23:16:18.879Z,7.82
2023-01-21T23:18:24.021Z,8.20
2023-01-21T23:20:29.782Z,8.38
2023-01-21T23:22:35.694Z,8.07
2023-01-21T23:24:40.606Z,7.78
2023-01-21T23:26:51.574Z,7.30
2023-01-21T23:29:00.705Z,6.97
2023-01-21T23:31:10.826Z,6.70
2023-01-21T23:33:16.177Z,6.50
2023-01-21T23:35:24.054Z,6.15
2023-01-21T23:37:28.925Z,6.75
2023-01-21T23:39:33.779Z,6.25
2023-01-21T23:41:39.016Z,6.32
2023-01-21T23:43:48.087Z,7.22
2023-01-21T23:45:53.380Z,6.75
2023-01-21T23:48:02.134Z,6.25
2023-01-21T23:50:09.406Z,6.15
2023-01-21T23:52:14.889Z,6.03
2023-01-21T23:54:19.787Z,5.05
2023-01-21T23:56:26.754Z,5.30
2023-01-21T23:58:32.071Z,5.45
